createdAt,value
2023-05-23T00:00:16.379Z,5.83
2023-05-23T00:02:45.144Z,5.13
2023-05-23T00:05:15.614Z,5.60
2023-05-23T00:07:45.488Z,5.13
2023-05-23T00:10:14.856Z,5.33
2023-05-23T00:12:43.167Z,5.27
2023-05-23T00:15:12.324Z,5.60
2023-05-23T00:17:40.661Z,5.23
2023-05-23T00:20:11.750Z,5.07
2023-05-23T00:22:43.242Z,5.50
2023-05-23T00:25:13.148Z,5.87
2023-05-23T00:27:41.452Z,6.27
2023-05-23T00:30:10.402Z,6.40
2023-05-23T00:32:38.800Z,6.87
2023-05-23T00:35:08.452Z,6.20
2023-05-23T00:37:36.793Z,6.90
2023-05-23T00:40:06.085Z,6.93
2023-05-23T00:42:35.809Z,6.20
2023-05-23T00:45:04.114Z,6.17
2023-05-23T00:47:32.616Z,6.13
2023-05-23T00:50:01.512Z,6.37
2023-05-23T00:52:29.811Z,5.70
2023-05-23T00:54:58.095Z,6.30
2023-05-23T00:57:26.496Z,7.27
2023-05-23T00:59:56.235Z,6.20
2023-05-23T01:02:25.304Z,6.47
2023-05-23T01:04:55.119Z,6.30
2023-05-23T01:07:23.748Z,6.60
2023-05-23T01:09:52.089Z,6.53
2023-05-23T01:12:22.676Z,6.97
2023-05-23T01:14:54.512Z,5.90
2023-05-23T01:17:26.119Z,6.03
2023-05-23T01:20:01.216Z,5.97
2023-05-23T01:22:40.810Z,6.37
2023-05-23T01:25:15.966Z,6.00
2023-05-23T01:27:50.961Z,6.77
2023-05-23T01:30:19.881Z,6.77
2023-05-23T01:32:49.096Z,6.80
2023-05-23T01:35:19.995Z,6.57
2023-05-23T01:37:48.682Z,6.57
2023-05-23T01:40:17.114Z,6.53
2023-05-23T01:42:45.416Z,6.57
2023-05-23T01:45:16.557Z,6.30
2023-05-23T01:47:44.874Z,6.10
2023-05-23T01:50:13.328Z,5.77
2023-05-23T01:52:41.704Z,5.83
2023-05-23T01:55:12.225Z,6.17
2023-05-23T01:57:40.724Z,6.27
2023-05-23T02:00:12.366Z,6.40
2023-05-23T02:02:45.207Z,5.90
2023-05-23T02:05:13.651Z,6.20
2023-05-23T02:07:41.971Z,6.10
2023-05-23T02:10:11.233Z,6.37
2023-05-23T02:12:39.756Z,5.80
2023-05-23T02:15:10.404Z,6.30
2023-05-23T02:17:41.477Z,6.47
2023-05-23T02:20:12.231Z,6.63
2023-05-23T02:22:40.550Z,5.70
2023-05-23T02:25:10.935Z,5.47
2023-05-23T02:27:41.201Z,5.63
2023-05-23T02:30:10.656Z,5.50
2023-05-23T02:32:39.110Z,5.27
2023-05-23T02:35:08.456Z,6.23
2023-05-23T02:37:38.351Z,5.80
2023-05-23T02:40:08.632Z,6.10
2023-05-23T02:42:38.045Z,5.57
2023-05-23T02:45:07.214Z,6.00
2023-05-23T02:47:35.929Z,6.10
2023-05-23T02:50:04.235Z,5.97
2023-05-23T02:52:33.638Z,6.20
2023-05-23T02:55:03.817Z,5.87
2023-05-23T02:57:39.435Z,5.80
2023-05-23T03:00:10.428Z,6.43
2023-05-23T03:02:39.354Z,6.30
2023-05-23T03:05:08.834Z,6.13
2023-05-23T03:07:38.470Z,5.60
2023-05-23T03:10:09.918Z,5.57
2023-05-23T03:12:38.282Z,5.53
2023-05-23T03:15:07.841Z,5.80
2023-05-23T03:17:38.987Z,5.90
2023-05-23T03:20:10.102Z,5.60
2023-05-23T03:22:42.019Z,6.30
2023-05-23T03:25:11.986Z,5.97
2023-05-23T03:27:40.379Z,5.87
2023-05-23T03:30:10.884Z,5.93
2023-05-23T03:32:39.505Z,6.60
2023-05-23T03:35:09.163Z,5.80
2023-05-23T03:37:37.616Z,6.47
2023-05-23T03:40:07.467Z,6.70
2023-05-23T03:42:38.116Z,7.40
2023-05-23T03:45:08.019Z,7.90
2023-05-23T03:47:36.507Z,7.77
2023-05-23T03:50:05.381Z,8.00
2023-05-23T03:52:35.018Z,8.17
2023-05-23T03:55:03.545Z,8.00
2023-05-23T03:57:32.141Z,7.83
2023-05-23T04:00:01.953Z,7.50
2023-05-23T04:02:32.906Z,8.50
2023-05-23T04:05:03.094Z,8.43
2023-05-23T04:07:34.617Z,8.40
2023-05-23T04:10:03.065Z,8.13
2023-05-23T04:12:31.749Z,8.43
2023-05-23T04:15:02.623Z,8.60
2023-05-23T04:17:32.457Z,7.53
2023-05-23T04:20:01.067Z,8.73
2023-05-23T04:22:29.538Z,8.73
2023-05-23T04:24:58.044Z,8.60
2023-05-23T04:27:30.988Z,7.83
2023-05-23T04:30:00.628Z,8.03
2023-05-23T04:32:30.547Z,8.47
2023-05-23T04:34:58.927Z,9.93
2023-05-23T04:37:27.742Z,10.57
2023-05-23T04:39:56.771Z,11.00
2023-05-23T04:42:58.028Z,11.63
2023-05-23T04:45:46.645Z,11.50
2023-05-23T04:48:37.452Z,11.53
2023-05-23T04:51:07.932Z,11.90
2023-05-23T04:53:41.302Z,11.57
2023-05-23T04:56:12.467Z,11.10
2023-05-23T04:58:42.354Z,11.13
2023-05-23T05:01:12.815Z,11.30
2023-05-23T05:03:42.864Z,12.10
2023-05-23T05:06:11.221Z,11.07
2023-05-23T05:08:42.213Z,11.37
2023-05-23T05:11:11.664Z,11.77
2023-05-23T05:13:40.430Z,11.40
2023-05-23T05:16:09.463Z,11.30
2023-05-23T05:18:37.815Z,11.30
2023-05-23T05:21:08.304Z,11.87
2023-05-23T05:23:39.923Z,12.00
2023-05-23T05:26:10.051Z,12.07
2023-05-23T05:28:39.452Z,11.60
2023-05-23T05:31:07.977Z,12.10
2023-05-23T05:33:37.833Z,11.50
2023-05-23T05:36:14.176Z,11.80
2023-05-23T05:38:43.122Z,11.00
2023-05-23T05:41:11.713Z,12.17
2023-05-23T05:43:48.358Z,12.40
2023-05-23T05:46:16.797Z,11.80
2023-05-23T05:48:45.769Z,11.93
2023-05-23T05:51:16.573Z,12.33
2023-05-23T05:53:46.500Z,11.43
2023-05-23T05:56:15.578Z,12.03
2023-05-23T05:58:43.969Z,11.27
2023-05-23T06:01:15.306Z,11.13
2023-05-23T06:03:44.707Z,11.43
2023-05-23T06:06:14.412Z,11.73
2023-05-23T06:08:44.858Z,10.03
2023-05-23T06:11:17.456Z,11.07
2023-05-23T06:13:46.349Z,11.00
2023-05-23T06:16:15.372Z,11.10
2023-05-23T06:18:45.532Z,11.37
2023-05-23T06:21:13.836Z,11.50
2023-05-23T06:23:44.158Z,11.80
2023-05-23T06:26:12.581Z,12.07
2023-05-23T06:28:40.958Z,11.70
2023-05-23T06:31:10.327Z,12.90
2023-05-23T06:33:38.959Z,12.63
2023-05-23T06:36:07.564Z,12.83
2023-05-23T06:38:35.960Z,13.27
2023-05-23T06:41:07.270Z,12.27
2023-05-23T06:43:37.273Z,13.47
2023-05-23T06:46:25.386Z,12.27
2023-05-23T06:49:03.007Z,12.43
2023-05-23T06:51:42.210Z,13.87
2023-05-23T06:54:10.771Z,12.87
2023-05-23T06:56:40.966Z,13.80
2023-05-23T06:59:10.043Z,14.13
2023-05-23T07:01:38.798Z,14.23
2023-05-23T07:04:07.326Z,14.37
2023-05-23T07:06:37.027Z,13.73
2023-05-23T07:09:07.127Z,13.43
2023-05-23T07:11:36.970Z,13.70
2023-05-23T07:14:08.068Z,13.63
2023-05-23T07:16:43.375Z,14.00
2023-05-23T07:19:13.352Z,13.63
2023-05-23T07:21:46.553Z,13.80
2023-05-23T07:24:17.981Z,13.63
2023-05-23T07:26:46.856Z,14.50
2023-05-23T07:29:17.313Z,14.30
2023-05-23T07:31:48.068Z,13.90
2023-05-23T07:34:16.682Z,14.97
2023-05-23T07:37:03.474Z,14.00
2023-05-23T07:39:39.762Z,14.37
2023-05-23T07:42:08.366Z,15.10
2023-05-23T07:44:38.330Z,16.03
2023-05-23T07:47:07.715Z,15.67
2023-05-23T07:49:36.005Z,15.63
2023-05-23T07:52:07.104Z,15.27
2023-05-23T07:54:36.666Z,15.93
2023-05-23T07:57:07.478Z,16.10
2023-05-23T07:59:37.415Z,16.50
2023-05-23T08:02:06.304Z,16.17
2023-05-23T08:04:34.856Z,15.53
2023-05-23T08:07:06.328Z,15.03
2023-05-23T08:09:56.923Z,15.23
2023-05-23T08:12:25.286Z,13.67
2023-05-23T08:15:03.953Z,14.33
2023-05-23T08:17:39.797Z,13.30
2023-05-23T08:20:12.145Z,14.63
2023-05-23T08:22:40.728Z,14.13
2023-05-23T08:25:09.757Z,14.37
2023-05-23T08:27:40.812Z,14.17
2023-05-23T08:30:28.524Z,13.60
2023-05-23T08:32:57.069Z,13.63
2023-05-23T08:35:25.785Z,14.53
2023-05-23T08:37:54.172Z,14.93
2023-05-23T08:40:23.834Z,15.23
2023-05-23T08:42:59.434Z,14.80
2023-05-23T08:45:30.557Z,15.13
2023-05-23T08:48:01.666Z,14.53
2023-05-23T08:50:32.353Z,14.30
2023-05-23T08:53:01.367Z,14.97
2023-05-23T08:55:31.788Z,15.93
2023-05-23T08:58:03.716Z,15.83
2023-05-23T09:00:54.440Z,15.10
2023-05-23T09:03:23.969Z,16.07
2023-05-23T09:06:07.984Z,14.83
2023-05-23T09:08:36.701Z,15.43
2023-05-23T09:11:05.320Z,15.63
2023-05-23T09:13:37.719Z,15.10
2023-05-23T09:16:11.403Z,15.23
2023-05-23T09:18:48.133Z,14.53
2023-05-23T09:21:18.449Z,12.97
2023-05-23T09:24:02.082Z,12.53
2023-05-23T09:26:30.448Z,12.17
2023-05-23T09:28:59.139Z,10.73
2023-05-23T09:31:29.935Z,10.10
2023-05-23T09:33:58.972Z,8.43
2023-05-23T09:36:30.597Z,7.70
2023-05-23T09:38:59.472Z,8.50
2023-05-23T09:41:31.896Z,7.93
2023-05-23T09:44:01.510Z,8.30
2023-05-23T09:46:31.446Z,8.33
2023-05-23T09:49:00.377Z,7.47
2023-05-23T09:51:28.772Z,8.43
2023-05-23T09:53:57.718Z,7.47
2023-05-23T09:56:26.705Z,7.43
2023-05-23T09:58:55.402Z,7.80
2023-05-23T10:01:23.766Z,7.53
2023-05-23T10:04:00.023Z,7.10
2023-05-23T10:06:31.622Z,7.43
2023-05-23T10:09:05.768Z,7.33
2023-05-23T10:12:15.595Z,7.33
2023-05-23T10:14:45.805Z,6.10
2023-05-23T10:17:17.108Z,5.97
2023-05-23T10:19:49.900Z,6.30
2023-05-23T10:22:18.269Z,6.30
2023-05-23T10:24:46.862Z,6.20
2023-05-23T10:27:16.079Z,5.43
2023-05-23T10:29:44.696Z,5.70
2023-05-23T10:32:13.063Z,5.27
2023-05-23T10:34:43.421Z,5.20
2023-05-23T10:37:16.686Z,5.03
2023-05-23T10:39:51.411Z,4.80
2023-05-23T10:42:21.859Z,4.67
2023-05-23T10:44:50.168Z,4.40
2023-05-23T10:47:27.464Z,3.83
2023-05-23T10:49:56.414Z,3.47
2023-05-23T10:52:27.823Z,3.83
2023-05-23T10:54:56.384Z,3.50
2023-05-23T10:57:27.905Z,3.80
2023-05-23T10:59:56.280Z,3.30
2023-05-23T11:02:27.595Z,3.33
2023-05-23T11:05:19.745Z,3.50
2023-05-23T11:07:50.783Z,3.50
2023-05-23T11:10:19.378Z,3.80
2023-05-23T11:12:47.868Z,3.40
2023-05-23T11:15:22.174Z,3.20
2023-05-23T11:17:54.970Z,3.33
2023-05-23T11:20:27.726Z,3.80
2023-05-23T11:23:03.062Z,3.57
2023-05-23T11:25:44.161Z,3.03
2023-05-23T11:28:13.053Z,3.27
2023-05-23T11:30:41.528Z,3.10
2023-05-23T11:33:13.557Z,3.40
2023-05-23T11:35:42.654Z,3.43
2023-05-23T11:38:12.363Z,3.27
2023-05-23T11:40:41.810Z,3.50
2023-05-23T11:43:11.550Z,3.50
2023-05-23T11:45:40.175Z,3.20
2023-05-23T11:48:09.779Z,3.70
2023-05-23T11:50:45.226Z,3.73
2023-05-23T11:53:17.242Z,3.20
2023-05-23T11:55:50.580Z,3.50
2023-05-23T11:58:18.974Z,3.50
2023-05-23T12:00:47.844Z,4.33
2023-05-23T12:03:16.609Z,3.90
2023-05-23T12:05:46.196Z,3.77
2023-05-23T12:08:15.945Z,4.17
2023-05-23T12:10:54.111Z,3.83
2023-05-23T12:13:25.096Z,4.20
2023-05-23T12:15:56.295Z,3.70
2023-05-23T12:18:24.924Z,3.83
2023-05-23T12:20:53.398Z,3.97
2023-05-23T12:23:23.260Z,3.90
2023-05-23T12:25:53.081Z,3.73
2023-05-23T12:28:21.930Z,4.07
2023-05-23T12:30:50.504Z,3.90
2023-05-23T12:33:21.317Z,3.90
2023-05-23T12:35:49.635Z,4.00
2023-05-23T12:38:18.577Z,3.87
2023-05-23T12:40:48.303Z,3.97
2023-05-23T12:43:17.109Z,3.53
2023-05-23T12:45:45.447Z,4.00
2023-05-23T12:48:14.204Z,3.77
2023-05-23T12:50:42.546Z,3.90
2023-05-23T12:53:10.913Z,3.60
2023-05-23T12:55:39.663Z,3.90
2023-05-23T12:58:09.515Z,3.77
2023-05-23T13:00:37.892Z,3.70
2023-05-23T13:03:06.682Z,3.90
2023-05-23T13:05:35.046Z,5.97
2023-05-23T13:08:03.573Z,6.23
2023-05-23T13:10:32.420Z,4.23
2023-05-23T13:13:00.859Z,3.90
2023-05-23T13:15:30.983Z,4.00
2023-05-23T13:17:59.444Z,4.03
2023-05-23T13:20:30.255Z,4.30
2023-05-23T13:22:59.118Z,4.77
2023-05-23T13:25:27.438Z,4.60
2023-05-23T13:27:56.069Z,4.43
2023-05-23T13:30:24.690Z,5.00
2023-05-23T13:32:54.692Z,4.90
2023-05-23T13:35:23.068Z,5.10
2023-05-23T13:37:51.968Z,5.27
2023-05-23T13:40:21.077Z,5.37
2023-05-23T13:42:51.025Z,5.20
2023-05-23T13:45:19.572Z,4.50
2023-05-23T13:47:47.932Z,4.40
2023-05-23T13:50:18.110Z,4.33
2023-05-23T13:52:49.007Z,4.30
2023-05-23T13:55:18.789Z,4.50
2023-05-23T13:57:47.401Z,4.17
2023-05-23T14:00:16.501Z,4.13
2023-05-23T14:02:45.031Z,4.00
2023-05-23T14:05:13.673Z,3.73
2023-05-23T14:07:47.265Z,4.10
2023-05-23T14:10:17.415Z,3.77
2023-05-23T14:12:46.117Z,3.63
2023-05-23T14:15:14.537Z,3.90
2023-05-23T14:17:43.166Z,4.27
2023-05-23T14:20:12.236Z,310.60
2023-05-23T14:22:40.559Z,124.20
2023-05-23T14:25:11.167Z,41.57
2023-05-23T14:27:40.282Z,43.43
2023-05-23T14:30:10.168Z,109.70
2023-05-23T14:32:39.600Z,112.20
2023-05-23T14:35:08.714Z,96.23
2023-05-23T14:37:37.077Z,106.40
2023-05-23T14:40:06.762Z,57.80
2023-05-23T14:42:36.782Z,47.60
2023-05-23T14:45:06.427Z,19.07
2023-05-23T14:47:35.560Z,30.73
2023-05-23T14:50:03.929Z,199.57
2023-05-23T14:52:32.238Z,310.90
2023-05-23T14:55:01.184Z,417.40
2023-05-23T14:57:29.802Z,118.30
2023-05-23T14:59:59.658Z,66.40
2023-05-23T15:02:28.228Z,126.33
2023-05-23T15:04:56.730Z,27.43
2023-05-23T15:07:25.026Z,97.97
2023-05-23T15:09:53.825Z,42.60
2023-05-23T15:12:22.426Z,111.13
2023-05-23T15:14:50.959Z,169.57
2023-05-23T15:17:24.989Z,122.80
2023-05-23T15:19:56.994Z,52.20
2023-05-23T15:24:59.801Z,296.90
2023-05-23T15:27:28.157Z,157.13
2023-05-23T15:29:56.524Z,283.33
2023-05-23T15:32:26.313Z,276.50
2023-05-23T15:34:54.833Z,233.17
2023-05-23T15:37:23.140Z,331.47
2023-05-23T15:39:51.880Z,41.67
2023-05-23T15:42:20.255Z,31.47
2023-05-23T15:44:48.552Z,130.07
2023-05-23T15:47:16.951Z,59.97
2023-05-23T15:49:46.670Z,33.17
2023-05-23T15:52:15.228Z,48.10
2023-05-23T15:54:43.543Z,29.90
2023-05-23T15:57:12.053Z,11.07
2023-05-23T15:59:40.554Z,12.47
2023-05-23T16:02:10.307Z,13.87
2023-05-23T16:04:39.079Z,8.70
2023-05-23T16:07:09.198Z,5.90
2023-05-23T16:09:37.546Z,8.50
2023-05-23T16:12:06.422Z,4.87
2023-05-23T16:14:34.801Z,4.27
2023-05-23T16:17:05.091Z,7.87
2023-05-23T16:19:33.834Z,10.57
2023-05-23T16:22:02.235Z,6.17
2023-05-23T16:24:31.994Z,6.80
2023-05-23T16:27:01.288Z,8.53
2023-05-23T16:29:29.798Z,7.97
2023-05-23T16:31:58.717Z,6.30
2023-05-23T16:34:27.136Z,5.33
2023-05-23T16:36:55.467Z,7.93
2023-05-23T16:39:23.805Z,5.27
2023-05-23T16:41:53.499Z,6.57
2023-05-23T16:44:21.903Z,11.27
2023-05-23T16:46:50.624Z,23.93
2023-05-23T16:49:19.015Z,37.57
2023-05-23T16:51:48.702Z,41.33
2023-05-23T16:54:17.295Z,33.47
2023-05-23T16:56:45.685Z,30.67
2023-05-23T16:59:15.360Z,38.23
2023-05-23T17:01:43.759Z,82.20
2023-05-23T17:04:12.112Z,39.80
2023-05-23T17:06:40.444Z,51.17
2023-05-23T17:09:09.044Z,34.53
2023-05-23T17:11:37.660Z,63.87
2023-05-23T17:14:06.394Z,47.50
2023-05-23T17:16:36.240Z,15.10
2023-05-23T17:19:05.701Z,15.30
2023-05-23T17:21:34.137Z,20.20
2023-05-23T17:24:02.426Z,61.87
2023-05-23T17:26:30.742Z,8.23
2023-05-23T17:28:59.383Z,14.57
2023-05-23T17:31:29.791Z,8.10
2023-05-23T17:34:00.352Z,22.63
2023-05-23T17:36:28.700Z,17.77
2023-05-23T17:38:57.016Z,10.10
2023-05-23T17:41:26.930Z,9.73
2023-05-23T17:43:55.670Z,8.20
2023-05-23T17:46:24.038Z,6.57
2023-05-23T17:48:53.394Z,8.67
2023-05-23T17:51:23.544Z,16.97
2023-05-23T17:53:53.962Z,9.63
2023-05-23T17:56:23.501Z,11.57
2023-05-23T17:58:52.712Z,13.63
2023-05-23T18:01:22.176Z,9.50
2023-05-23T18:03:53.700Z,6.60
2023-05-23T18:06:23.489Z,7.80
2023-05-23T18:08:51.840Z,6.60
2023-05-23T18:11:20.673Z,6.67
2023-05-23T18:13:49.048Z,7.30
2023-05-23T18:16:17.697Z,6.63
2023-05-23T18:18:46.090Z,7.40
2023-05-23T18:21:15.750Z,5.93
2023-05-23T18:23:47.212Z,6.70
2023-05-23T18:26:15.959Z,7.53
2023-05-23T18:28:44.322Z,8.40
2023-05-23T18:31:12.684Z,6.23
2023-05-23T18:33:41.120Z,10.83
2023-05-23T18:36:10.021Z,14.90
2023-05-23T18:38:38.975Z,7.00
2023-05-23T18:41:12.554Z,6.97
2023-05-23T18:43:43.063Z,5.67
2023-05-23T18:46:11.419Z,7.27
2023-05-23T18:48:40.840Z,5.97
2023-05-23T18:51:09.573Z,6.80
2023-05-23T18:53:38.410Z,6.50
2023-05-23T18:56:09.255Z,6.63
2023-05-23T18:58:37.611Z,6.97
2023-05-23T19:01:07.139Z,7.37
2023-05-23T19:03:37.278Z,8.17
2023-05-23T19:06:06.438Z,7.40
2023-05-23T19:08:34.815Z,7.70
2023-05-23T19:11:03.153Z,8.63
2023-05-23T19:13:32.957Z,8.73
2023-05-23T19:16:01.319Z,8.80
2023-05-23T19:18:30.194Z,6.87
2023-05-23T19:20:58.522Z,7.77
2023-05-23T19:23:28.091Z,9.50
2023-05-23T19:25:56.429Z,8.13
2023-05-23T19:28:24.847Z,7.33
2023-05-23T19:30:54.592Z,6.70
2023-05-23T19:33:23.439Z,6.50
2023-05-23T19:35:51.815Z,7.13
2023-05-23T19:38:20.140Z,8.37
2023-05-23T19:40:48.674Z,7.13
2023-05-23T19:43:17.185Z,7.07
2023-05-23T19:45:45.822Z,7.10
2023-05-23T19:48:16.120Z,7.30
2023-05-23T19:50:44.758Z,7.07
2023-05-23T19:53:13.676Z,7.30
2023-05-23T19:55:42.762Z,7.13
2023-05-23T19:58:11.894Z,7.50
2023-05-23T20:00:40.407Z,7.67
2023-05-23T20:03:09.409Z,7.93
2023-05-23T20:05:39.321Z,6.73
2023-05-23T20:08:08.152Z,7.00
2023-05-23T20:10:36.494Z,7.20
2023-05-23T20:13:05.146Z,7.30
2023-05-23T20:15:39.910Z,7.43
2023-05-23T20:18:09.003Z,7.57
2023-05-23T20:20:38.990Z,7.60
2023-05-23T20:23:07.610Z,7.53
2023-05-23T20:25:36.377Z,7.50
2023-05-23T20:28:04.873Z,7.70
2023-05-23T20:30:33.359Z,7.90
2023-05-23T20:33:01.994Z,8.17
2023-05-23T20:35:31.105Z,8.07
2023-05-23T20:38:00.811Z,7.77
2023-05-23T20:40:29.766Z,7.97
2023-05-23T20:43:04.613Z,8.43
2023-05-23T20:45:33.460Z,8.83
2023-05-23T20:48:01.917Z,8.80
2023-05-23T20:50:31.374Z,8.77
2023-05-23T20:53:02.620Z,7.20
2023-05-23T20:55:31.071Z,7.53
2023-05-23T20:57:59.677Z,8.37
2023-05-23T21:00:27.983Z,7.83
2023-05-23T21:02:56.406Z,8.67
2023-05-23T21:05:24.948Z,8.03
2023-05-23T21:07:53.681Z,8.10
2023-05-23T21:10:23.448Z,7.77
2023-05-23T21:12:51.949Z,8.33
2023-05-23T21:15:20.237Z,7.70
2023-05-23T21:17:48.544Z,6.97
2023-05-23T21:20:17.210Z,8.03
2023-05-23T21:22:45.615Z,6.83
2023-05-23T21:25:13.974Z,7.20
2023-05-23T21:27:43.761Z,6.87
2023-05-23T21:30:13.093Z,7.17
2023-05-23T21:32:41.635Z,7.43
2023-05-23T21:35:11.049Z,6.77
2023-05-23T21:37:39.403Z,7.30
2023-05-23T21:40:09.152Z,7.27
2023-05-23T21:42:37.467Z,7.20
2023-05-23T21:45:08.618Z,7.10
2023-05-23T21:47:37.241Z,7.73
2023-05-23T21:50:06.320Z,6.73
2023-05-23T21:52:34.715Z,6.77
2023-05-23T21:55:03.110Z,7.00
2023-05-23T21:57:31.415Z,6.97
2023-05-23T22:00:00.191Z,7.07
2023-05-23T22:02:30.023Z,7.13
2023-05-23T22:04:58.366Z,7.13
2023-05-23T22:07:26.956Z,7.07
2023-05-23T22:09:56.357Z,6.63
2023-05-23T22:12:25.471Z,7.03
2023-05-23T22:14:55.660Z,7.03
2023-05-23T22:17:26.447Z,6.13
2023-05-23T22:19:57.179Z,6.30
2023-05-23T22:22:25.586Z,7.23
2023-05-23T22:24:53.920Z,6.90
2023-05-23T22:27:22.290Z,6.17
2023-05-23T22:29:50.858Z,6.27
2023-05-23T22:32:19.464Z,6.50
2023-05-23T22:34:47.846Z,6.30
2023-05-23T22:37:17.697Z,7.27
2023-05-23T22:39:46.065Z,6.33
2023-05-23T22:42:14.693Z,6.47
2023-05-23T22:44:43.231Z,6.10
2023-05-23T22:47:13.713Z,6.83
2023-05-23T22:49:43.668Z,5.60
2023-05-23T22:52:12.012Z,6.20
2023-05-23T22:54:41.853Z,6.27
2023-05-23T22:57:10.602Z,5.73
2023-05-23T22:59:39.033Z,5.53
2023-05-23T23:02:09.809Z,6.80
2023-05-23T23:04:40.306Z,6.07
2023-05-23T23:07:08.820Z,6.83
2023-05-23T23:09:37.131Z,5.97
2023-05-23T23:12:07.953Z,6.57
2023-05-23T23:14:36.516Z,5.90
2023-05-23T23:17:05.188Z,5.87
2023-05-23T23:19:35.339Z,5.57
2023-05-23T23:22:04.410Z,5.90
2023-05-23T23:24:33.279Z,6.43
2023-05-23T23:27:01.755Z,5.07
2023-05-23T23:29:31.594Z,5.03
2023-05-23T23:31:59.996Z,5.73
2023-05-23T23:34:28.270Z,5.30
2023-05-23T23:36:56.876Z,5.83
2023-05-23T23:39:25.192Z,5.00
2023-05-23T23:41:53.507Z,4.87
2023-05-23T23:44:21.842Z,4.80
2023-05-23T23:46:51.634Z,5.53
2023-05-23T23:49:20.653Z,4.73
2023-05-23T23:51:49.228Z,5.13
2023-05-23T23:54:17.798Z,5.07
2023-05-23T23:56:46.126Z,5.30
2023-05-23T23:59:14.478Z,5.00
